createdAt,value
2016-09-15T00:00:25.589Z,0
2016-09-15T00:01:25.621Z,0
2016-09-15T00:02:26.248Z,0
2016-09-15T00:03:25.670Z,0
2016-09-15T00:04:25.696Z,0
2016-09-15T00:05:40.649Z,0
2016-09-15T00:06:25.751Z,0
2016-09-15T00:07:26.068Z,0
2016-09-15T00:10:25.846Z,0
2016-09-15T00:11:25.877Z,0
2016-09-15T00:12:25.901Z,0
2016-09-15T00:13:25.936Z,0
2016-09-15T00:14:25.954Z,0
2016-09-15T00:15:25.982Z,0
2016-09-15T00:16:26.003Z,0
2016-09-15T00:17:26.041Z,0
2016-09-15T00:18:26.053Z,0
2016-09-15T00:19:26.096Z,0
2016-09-15T00:20:41.037Z,0
2016-09-15T00:22:26.152Z,0
2016-09-15T00:23:26.189Z,0
2016-09-15T00:24:26.218Z,0
2016-09-15T00:25:26.241Z,0
2016-09-15T00:26:26.267Z,0
2016-09-15T00:28:26.630Z,0
2016-09-15T00:29:26.343Z,0
2016-09-15T00:30:26.423Z,0
2016-09-15T00:31:41.327Z,0
2016-09-15T00:32:26.419Z,0
2016-09-15T00:33:26.451Z,0
2016-09-15T00:34:41.402Z,0
2016-09-15T00:35:26.498Z,0
2016-09-15T00:36:26.834Z,0
2016-09-15T00:37:26.551Z,0
2016-09-15T00:38:26.577Z,0
2016-09-15T00:39:26.603Z,0
2016-09-15T00:40:41.554Z,0
2016-09-15T00:41:26.654Z,0
2016-09-15T00:42:26.681Z,0
2016-09-15T00:43:26.735Z,0
2016-09-15T00:44:26.734Z,0
2016-09-15T00:45:26.759Z,0
2016-09-15T00:46:26.788Z,0
2016-09-15T00:47:26.810Z,0
2016-09-15T00:48:26.844Z,0
2016-09-15T00:49:26.861Z,0
2016-09-15T00:50:41.822Z,0
2016-09-15T00:51:26.918Z,0
2016-09-15T00:52:26.932Z,0
2016-09-15T00:53:26.968Z,0
2016-09-15T00:55:27.022Z,0
2016-09-15T00:57:27.076Z,0
2016-09-15T00:58:27.090Z,0
2016-09-15T00:59:27.116Z,0
2016-09-15T01:00:27.147Z,0
2016-09-15T01:03:27.221Z,0
2016-09-15T01:04:27.243Z,0
2016-09-15T01:05:27.573Z,0
2016-09-15T01:06:27.303Z,0
2016-09-15T01:07:27.331Z,0
2016-09-15T01:08:27.350Z,0
2016-09-15T01:09:27.379Z,0
2016-09-15T01:11:27.429Z,0
2016-09-15T01:12:42.377Z,0
2016-09-15T01:13:27.488Z,0
2016-09-15T01:14:27.509Z,0
2016-09-15T01:15:27.826Z,0
2016-09-15T01:16:27.558Z,0
2016-09-15T01:17:27.596Z,0
2016-09-15T01:18:27.609Z,0
2016-09-15T01:19:27.634Z,0
2016-09-15T01:20:27.659Z,0
2016-09-15T01:22:27.713Z,0
2016-09-15T01:23:27.737Z,0
2016-09-15T01:24:27.759Z,0
2016-09-15T01:25:27.793Z,0
2016-09-15T01:26:27.815Z,0
2016-09-15T01:27:27.846Z,0
2016-09-15T01:28:42.789Z,0
2016-09-15T01:29:27.886Z,0
2016-09-15T01:30:27.919Z,0
2016-09-15T01:32:27.967Z,0
2016-09-15T01:33:28.001Z,0
2016-09-15T01:34:28.019Z,0
2016-09-15T01:35:28.045Z,0
2016-09-15T01:38:28.118Z,0
2016-09-15T01:39:28.153Z,0
2016-09-15T01:40:28.175Z,0
2016-09-15T01:41:28.200Z,0
2016-09-15T01:42:28.225Z,0
2016-09-15T01:43:43.175Z,0
2016-09-15T01:44:28.283Z,0
2016-09-15T01:45:28.300Z,0
2016-09-15T01:46:28.327Z,0
2016-09-15T01:47:43.287Z,0
2016-09-15T01:48:28.382Z,0
2016-09-15T01:49:28.407Z,0
2016-09-15T01:50:28.425Z,0
2016-09-15T01:51:28.455Z,0
2016-09-15T01:52:28.486Z,0
2016-09-15T01:53:28.510Z,0
2016-09-15T01:54:28.531Z,0
2016-09-15T01:55:28.559Z,0
2016-09-15T01:56:28.887Z,0
2016-09-15T01:57:43.533Z,0
2016-09-15T01:58:43.559Z,0
2016-09-15T01:59:28.664Z,0
2016-09-15T02:00:28.687Z,0
2016-09-15T02:02:28.734Z,0
2016-09-15T02:03:28.759Z,0
2016-09-15T02:04:28.788Z,0
2016-09-15T02:05:28.818Z,0
2016-09-15T02:06:28.841Z,0
2016-09-15T02:07:28.868Z,0
2016-09-15T02:08:28.891Z,0
2016-09-15T02:09:28.913Z,0
2016-09-15T02:10:43.866Z,0
2016-09-15T02:11:28.965Z,0
2016-09-15T02:12:28.986Z,0
2016-09-15T02:13:43.942Z,0
2016-09-15T02:14:43.965Z,0
2016-09-15T02:15:43.988Z,0
2016-09-15T02:16:29.089Z,0
2016-09-15T02:18:29.142Z,0
2016-09-15T02:19:29.171Z,0
2016-09-15T02:20:29.203Z,0
2016-09-15T02:21:29.215Z,0
2016-09-15T02:22:29.244Z,0
2016-09-15T02:24:29.346Z,0
2016-09-15T02:25:29.327Z,0
2016-09-15T02:26:29.348Z,0
2016-09-15T02:27:44.297Z,0
2016-09-15T02:28:29.454Z,0
2016-09-15T02:29:29.423Z,0
2016-09-15T02:30:29.451Z,0
2016-09-15T02:31:44.406Z,0
2016-09-15T02:32:44.420Z,0
2016-09-15T02:33:29.522Z,0
2016-09-15T02:34:29.549Z,0
2016-09-15T02:35:29.572Z,0
2016-09-15T02:37:29.625Z,0
2016-09-15T02:38:29.654Z,0
2016-09-15T02:39:29.684Z,0
2016-09-15T02:40:29.703Z,0
2016-09-15T02:41:29.729Z,0
2016-09-15T02:42:29.758Z,0
2016-09-15T02:43:29.774Z,0
2016-09-15T02:44:29.802Z,0
2016-09-15T02:45:29.835Z,0
2016-09-15T02:46:29.857Z,0
2016-09-15T02:47:44.810Z,0
2016-09-15T02:48:29.907Z,0
2016-09-15T02:49:29.924Z,0
2016-09-15T02:50:29.955Z,0
2016-09-15T02:51:29.975Z,0
2016-09-15T02:52:30.008Z,0
2016-09-15T02:53:30.038Z,0
2016-09-15T02:54:30.053Z,0
2016-09-15T02:55:30.076Z,0
2016-09-15T02:56:30.100Z,0
2016-09-15T02:57:30.130Z,0
2016-09-15T02:58:30.167Z,0
2016-09-15T02:59:30.196Z,0
2016-09-15T03:00:30.212Z,0
2016-09-15T03:01:30.241Z,0
2016-09-15T03:02:30.257Z,0
2016-09-15T03:04:30.311Z,0
2016-09-15T03:05:30.335Z,0
2016-09-15T03:06:30.358Z,0
2016-09-15T03:09:30.438Z,0
2016-09-15T03:11:30.489Z,0
2016-09-15T03:12:30.513Z,0
2016-09-15T03:13:30.550Z,0
2016-09-15T03:14:45.487Z,0
2016-09-15T03:15:30.585Z,0
2016-09-15T03:16:30.609Z,0
2016-09-15T03:17:30.629Z,0
2016-09-15T03:18:45.587Z,0
2016-09-15T03:19:45.610Z,0
2016-09-15T03:20:30.726Z,0
2016-09-15T03:21:30.751Z,0
2016-09-15T03:22:30.765Z,0
2016-09-15T03:24:30.823Z,0
2016-09-15T03:25:30.837Z,0
2016-09-15T03:26:45.797Z,0
2016-09-15T03:27:30.891Z,0
2016-09-15T03:28:31.524Z,0
2016-09-15T03:29:31.245Z,0
2016-09-15T03:30:30.967Z,0
2016-09-15T03:31:31.308Z,0
2016-09-15T03:32:31.021Z,0
2016-09-15T03:33:31.049Z,0
2016-09-15T03:34:31.077Z,0
2016-09-15T03:35:31.099Z,0
2016-09-15T03:37:31.454Z,0
2016-09-15T03:38:31.176Z,0
2016-09-15T03:39:31.199Z,0
2016-09-15T03:40:31.264Z,0
2016-09-15T03:41:31.551Z,0
2016-09-15T03:42:31.261Z,0
2016-09-15T03:43:31.296Z,0
2016-09-15T03:44:31.316Z,0
2016-09-15T03:45:31.359Z,0
2016-09-15T03:46:46.296Z,0
2016-09-15T03:47:46.319Z,0
2016-09-15T03:48:31.431Z,0
2016-09-15T03:49:31.440Z,0
2016-09-15T03:50:46.391Z,0
2016-09-15T03:51:31.497Z,0
2016-09-15T03:52:46.455Z,0
2016-09-15T03:53:31.552Z,0
2016-09-15T03:54:31.571Z,0
2016-09-15T03:55:31.591Z,0
2016-09-15T03:56:31.623Z,0
2016-09-15T03:57:31.641Z,0
2016-09-15T03:58:31.674Z,0
2016-09-15T04:00:31.721Z,0
2016-09-15T04:01:31.735Z,0
2016-09-15T04:02:31.770Z,4
2016-09-15T04:03:31.796Z,4
2016-09-15T04:04:31.820Z,0
2016-09-15T04:05:31.844Z,4
2016-09-15T04:06:46.792Z,4
2016-09-15T04:07:31.907Z,4
2016-09-15T04:08:31.920Z,4
2016-09-15T04:09:31.948Z,4
2016-09-15T04:10:31.968Z,8
2016-09-15T04:12:32.019Z,12
2016-09-15T04:13:32.047Z,12
2016-09-15T04:14:32.069Z,12
2016-09-15T04:15:32.098Z,12
2016-09-15T04:16:32.116Z,16
2016-09-15T04:17:32.144Z,20
2016-09-15T04:18:32.192Z,24
2016-09-15T04:19:47.120Z,32
2016-09-15T04:20:32.220Z,36
2016-09-15T04:21:32.248Z,40
2016-09-15T04:22:47.191Z,48
2016-09-15T04:23:47.218Z,56
2016-09-15T04:24:32.324Z,64
2016-09-15T04:25:32.348Z,76
2016-09-15T04:26:32.375Z,88
2016-09-15T04:27:32.400Z,96
2016-09-15T04:28:32.424Z,112
2016-09-15T04:30:32.468Z,144
2016-09-15T04:31:47.424Z,164
2016-09-15T04:32:32.521Z,180
2016-09-15T04:33:47.529Z,204
2016-09-15T04:34:32.573Z,220
2016-09-15T04:35:47.521Z,252
2016-09-15T04:36:32.630Z,272
2016-09-15T04:37:47.624Z,300
2016-09-15T04:38:47.590Z,328
2016-09-15T04:39:32.692Z,352
2016-09-15T04:40:32.727Z,380
2016-09-15T04:41:47.671Z,420
2016-09-15T04:42:32.773Z,448
2016-09-15T04:43:32.792Z,484
2016-09-15T04:44:32.823Z,524
2016-09-15T04:45:32.897Z,564
2016-09-15T04:46:32.870Z,608
2016-09-15T04:47:32.899Z,652
2016-09-15T04:48:32.932Z,696
2016-09-15T04:49:47.874Z,764
2016-09-15T04:50:47.904Z,816
2016-09-15T04:51:32.993Z,860
2016-09-15T04:52:33.037Z,916
2016-09-15T04:54:33.066Z,1036
2016-09-15T04:55:33.099Z,1100
2016-09-15T04:56:33.121Z,1168
2016-09-15T04:57:33.159Z,1236
2016-09-15T04:58:33.166Z,1304
2016-09-15T04:59:33.199Z,1372
2016-09-15T05:00:33.215Z,1444
2016-09-15T05:01:33.546Z,1512
2016-09-15T05:02:33.269Z,1584
2016-09-15T05:03:48.224Z,1676
2016-09-15T05:04:33.327Z,1728
2016-09-15T05:05:33.351Z,1800
2016-09-15T05:06:33.369Z,1872
2016-09-15T05:07:33.401Z,1940
2016-09-15T05:09:48.366Z,2104
2016-09-15T05:10:33.484Z,2156
2016-09-15T05:11:33.507Z,2236
2016-09-15T05:13:33.553Z,2400
2016-09-15T05:14:33.571Z,2508
2016-09-15T05:15:33.593Z,3808
2016-09-15T05:16:33.621Z,5316
2016-09-15T05:17:33.643Z,5828
2016-09-15T05:18:33.675Z,4660
2016-09-15T05:19:33.692Z,3044
2016-09-15T05:20:33.720Z,2928
2016-09-15T05:21:33.743Z,2976
2016-09-15T05:22:48.697Z,3116
2016-09-15T05:23:33.791Z,3140
2016-09-15T05:24:33.815Z,3200
2016-09-15T05:27:33.896Z,3552
2016-09-15T05:28:33.925Z,3592
2016-09-15T05:29:33.948Z,3684
2016-09-15T05:30:33.975Z,3724
2016-09-15T05:31:33.997Z,4016
2016-09-15T05:32:48.954Z,3920
2016-09-15T05:33:48.978Z,4500
2016-09-15T05:34:34.070Z,4812
2016-09-15T05:35:34.150Z,5108
2016-09-15T05:36:34.125Z,4660
2016-09-15T05:37:34.147Z,4360
2016-09-15T05:38:49.110Z,4384
2016-09-15T05:39:49.126Z,4540
2016-09-15T05:40:34.231Z,4492
2016-09-15T05:41:49.226Z,4452
2016-09-15T05:42:34.277Z,4504
2016-09-15T05:43:34.308Z,4592
2016-09-15T05:44:34.326Z,4692
2016-09-15T05:46:34.430Z,4976
2016-09-15T05:47:34.399Z,4996
2016-09-15T05:48:34.429Z,5120
2016-09-15T05:49:34.453Z,5124
2016-09-15T05:50:34.485Z,5580
2016-09-15T05:51:34.504Z,6660
2016-09-15T05:52:34.529Z,12748
2016-09-15T05:53:34.558Z,28544
2016-09-15T05:54:34.878Z,40960
2016-09-15T05:56:34.627Z,47904
2016-09-15T05:57:49.583Z,47840
2016-09-15T05:58:34.679Z,48896
2016-09-15T05:59:34.723Z,52064
2016-09-15T06:00:49.654Z,52128
2016-09-15T06:01:34.761Z,52672
2016-09-15T06:02:34.790Z,50784
2016-09-15T06:03:34.814Z,51872
2016-09-15T06:04:34.848Z,54912
2016-09-15T06:05:49.804Z,51072
2016-09-15T06:06:34.904Z,47840
2016-09-15T06:08:34.964Z,49920
2016-09-15T06:09:34.992Z,54912
2016-09-15T06:10:35.074Z,57280
2016-09-15T06:11:35.352Z,57216
2016-09-15T06:12:35.095Z,55072
2016-09-15T06:13:50.044Z,56224
2016-09-15T06:14:35.143Z,58464
2016-09-15T06:15:35.187Z,58656
2016-09-15T06:16:35.207Z,58016
2016-09-15T06:17:35.539Z,57792
2016-09-15T06:18:35.275Z,58848
2016-09-15T06:19:35.311Z,59328
2016-09-15T06:20:35.342Z,59904
2016-09-15T06:21:35.680Z,60128
2016-09-15T06:22:35.410Z,61696
2016-09-15T06:24:35.471Z,61312
2016-09-15T06:25:50.435Z,62240
2016-09-15T06:26:35.540Z,60544
2016-09-15T06:27:35.569Z,60544
2016-09-15T06:28:50.535Z,62432
2016-09-15T06:29:35.645Z,62912
2016-09-15T06:32:50.668Z,61216
2016-09-15T06:33:35.780Z,60064
2016-09-15T06:34:35.818Z,61664
2016-09-15T06:35:35.855Z,61760
2016-09-15T06:36:35.896Z,59552
2016-09-15T06:37:35.920Z,61184
2016-09-15T06:38:35.953Z,59552
2016-09-15T06:39:35.990Z,59872
2016-09-15T06:40:50.953Z,59680
2016-09-15T06:41:36.053Z,58784
2016-09-15T06:43:36.179Z,58080
2016-09-15T06:44:36.163Z,55072
2016-09-15T06:45:36.205Z,55552
2016-09-15T06:46:51.158Z,59904
2016-09-15T06:47:36.265Z,60992
2016-09-15T06:49:36.332Z,61920
2016-09-15T06:50:36.374Z,61472
2016-09-15T06:51:36.434Z,60928
2016-09-15T06:52:36.437Z,64736
2016-09-15T06:53:36.484Z,64512
2016-09-15T06:54:36.573Z,64576
2016-09-15T06:55:36.557Z,62944
2016-09-15T06:56:36.586Z,60416
2016-09-15T06:57:36.622Z,61152
2016-09-15T06:58:51.586Z,57440
2016-09-15T06:59:36.992Z,57408
2016-09-15T07:00:51.664Z,58848
2016-09-15T07:01:36.762Z,58208
2016-09-15T07:02:37.115Z,56224
2016-09-15T07:03:51.776Z,62720
2016-09-15T07:04:36.873Z,60864
2016-09-15T07:05:36.908Z,59584
2016-09-15T07:06:36.952Z,63488
2016-09-15T07:07:36.986Z,63232
2016-09-15T07:08:37.027Z,57856
2016-09-15T07:10:37.090Z,60512
2016-09-15T07:11:37.123Z,60640
2016-09-15T07:12:52.088Z,57440
2016-09-15T07:13:37.190Z,54432
2016-09-15T07:14:37.236Z,56448
2016-09-15T07:16:52.233Z,61728
2016-09-15T07:17:37.344Z,60320
2016-09-15T07:19:37.417Z,57728
2016-09-15T07:20:37.499Z,59200
2016-09-15T07:21:37.488Z,57216
2016-09-15T07:22:37.526Z,54464
2016-09-15T07:23:37.552Z,51872
2016-09-15T07:24:52.525Z,55520
2016-09-15T07:25:37.641Z,57024
2016-09-15T07:26:37.671Z,59328
2016-09-15T07:27:37.704Z,59552
2016-09-15T07:28:52.666Z,60064
2016-09-15T07:29:37.772Z,59776
2016-09-15T07:30:37.813Z,57056
2016-09-15T07:31:37.843Z,57920
2016-09-15T07:32:52.809Z,56736
2016-09-15T07:33:37.913Z,57792
2016-09-15T07:34:37.956Z,56544
2016-09-15T07:36:38.032Z,57376
2016-09-15T07:37:38.061Z,56128
2016-09-15T07:39:38.130Z,59072
2016-09-15T07:40:38.170Z,57024
2016-09-15T07:41:38.210Z,56768
2016-09-15T07:42:38.237Z,56960
2016-09-15T07:43:38.275Z,53632
2016-09-15T07:44:53.243Z,52800
2016-09-15T07:45:53.278Z,52480
2016-09-15T07:46:38.384Z,52224
2016-09-15T07:47:38.421Z,50752
2016-09-15T07:48:53.401Z,51552
2016-09-15T07:49:53.415Z,51360
2016-09-15T07:50:38.531Z,50656
2016-09-15T07:51:38.571Z,50336
2016-09-15T07:52:38.605Z,49824
2016-09-15T07:53:38.632Z,50144
2016-09-15T07:54:38.674Z,48896
2016-09-15T07:55:39.763Z,46848
2016-09-15T07:56:38.736Z,48928
2016-09-15T07:57:38.780Z,46912
2016-09-15T07:58:38.811Z,44480
2016-09-15T08:00:38.879Z,44960
2016-09-15T08:01:38.918Z,43744
2016-09-15T08:02:53.887Z,45664
2016-09-15T08:04:39.025Z,47360
2016-09-15T08:05:39.066Z,47616
2016-09-15T08:06:39.100Z,46016
2016-09-15T08:07:39.137Z,44960
2016-09-15T08:08:39.190Z,45728
2016-09-15T08:09:39.207Z,46560
2016-09-15T08:10:39.244Z,47776
2016-09-15T08:11:39.270Z,44864
2016-09-15T08:12:39.316Z,43648
2016-09-15T08:13:39.346Z,42848
2016-09-15T08:14:39.381Z,41984
2016-09-15T08:15:39.418Z,40928
2016-09-15T08:16:54.378Z,39584
2016-09-15T08:17:39.480Z,39072
2016-09-15T08:18:39.522Z,40320
2016-09-15T08:19:39.557Z,39104
2016-09-15T08:20:39.590Z,38816
2016-09-15T08:21:39.633Z,38272
2016-09-15T08:22:54.585Z,36992
2016-09-15T08:23:54.635Z,37472
2016-09-15T08:24:39.727Z,35776
2016-09-15T08:25:39.781Z,32672
2016-09-15T08:26:39.797Z,30944
2016-09-15T08:27:39.840Z,28960
2016-09-15T08:28:39.874Z,26656
2016-09-15T08:29:39.913Z,26144
2016-09-15T08:30:54.872Z,25376
2016-09-15T08:31:39.975Z,24416
2016-09-15T08:32:40.028Z,23456
2016-09-15T08:33:40.049Z,22976
2016-09-15T08:34:40.079Z,22752
2016-09-15T08:36:40.146Z,21504
2016-09-15T08:37:40.203Z,20896
2016-09-15T08:38:40.229Z,20640
2016-09-15T08:39:40.260Z,20384
2016-09-15T08:40:40.290Z,20096
2016-09-15T08:41:40.628Z,20000
2016-09-15T08:42:40.362Z,19840
2016-09-15T08:43:40.399Z,19712
2016-09-15T08:44:40.434Z,19456
2016-09-15T08:45:55.395Z,19328
2016-09-15T08:47:40.534Z,18944
2016-09-15T08:48:40.576Z,18784
2016-09-15T08:49:40.602Z,18592
2016-09-15T08:50:40.647Z,18336
2016-09-15T08:51:55.904Z,18304
2016-09-15T08:52:40.710Z,18272
2016-09-15T08:53:55.670Z,18144
2016-09-15T08:55:40.829Z,17984
2016-09-15T08:57:40.885Z,17760
2016-09-15T08:58:40.920Z,17664
2016-09-15T08:59:40.956Z,17600
2016-09-15T09:00:40.990Z,17600
2016-09-15T09:01:41.069Z,17472
2016-09-15T09:02:41.061Z,17344
2016-09-15T09:03:56.019Z,17032
2016-09-15T09:04:56.052Z,16944
2016-09-15T09:05:41.166Z,16996
2016-09-15T09:07:56.153Z,16776
2016-09-15T09:08:56.187Z,16696
2016-09-15T09:09:56.217Z,16644
2016-09-15T09:10:41.332Z,16584
2016-09-15T09:11:41.366Z,16476
2016-09-15T09:12:41.408Z,16464
2016-09-15T09:13:41.441Z,16328
2016-09-15T09:14:41.473Z,16236
2016-09-15T09:15:41.498Z,16212
2016-09-15T09:16:41.539Z,16120
2016-09-15T09:17:41.873Z,16044
2016-09-15T09:18:41.605Z,15924
2016-09-15T09:19:41.643Z,15840
2016-09-15T09:21:41.712Z,15708
2016-09-15T09:22:41.751Z,15512
2016-09-15T09:23:56.812Z,15492
2016-09-15T09:24:41.807Z,15448
2016-09-15T09:25:41.853Z,15348
2016-09-15T09:26:56.799Z,15284
2016-09-15T09:27:41.919Z,15176
2016-09-15T09:28:41.947Z,15052
2016-09-15T09:30:42.012Z,14908
2016-09-15T09:31:42.050Z,14920
2016-09-15T09:33:42.117Z,14656
2016-09-15T09:34:57.081Z,14604
2016-09-15T09:35:42.174Z,14512
2016-09-15T09:36:42.221Z,14476
2016-09-15T09:37:42.247Z,14452
2016-09-15T09:38:57.527Z,14384
2016-09-15T09:39:42.324Z,14284
2016-09-15T09:40:42.353Z,14228
2016-09-15T09:41:42.388Z,14160
2016-09-15T09:42:42.424Z,14088
2016-09-15T09:43:42.467Z,14052
2016-09-15T09:44:42.490Z,13988
2016-09-15T09:45:42.525Z,13892
2016-09-15T09:47:42.590Z,13856
2016-09-15T09:48:42.617Z,13716
2016-09-15T09:49:42.659Z,13708
2016-09-15T09:50:42.697Z,13720
2016-09-15T09:51:42.739Z,13632
2016-09-15T09:52:42.759Z,13644
2016-09-15T09:53:42.783Z,13612
2016-09-15T09:54:57.753Z,13484
2016-09-15T09:55:42.852Z,13440
2016-09-15T09:56:42.885Z,13340
2016-09-15T09:57:42.930Z,13288
2016-09-15T09:58:42.958Z,13136
2016-09-15T09:59:42.993Z,13096
2016-09-15T10:00:43.024Z,13012
2016-09-15T10:01:43.058Z,12936
2016-09-15T10:02:43.089Z,12912
2016-09-15T10:03:43.133Z,12876
2016-09-15T10:04:43.204Z,12724
2016-09-15T10:05:43.194Z,12664
2016-09-15T10:06:43.228Z,12660
2016-09-15T10:07:43.255Z,12640
2016-09-15T10:08:58.216Z,12536
2016-09-15T10:09:43.326Z,12480
2016-09-15T10:10:58.283Z,12400
2016-09-15T10:11:58.318Z,12288
2016-09-15T10:12:43.441Z,12316
2016-09-15T10:13:58.377Z,12260
2016-09-15T10:14:43.493Z,12236
2016-09-15T10:15:43.518Z,12240
2016-09-15T10:16:43.567Z,12200
2016-09-15T10:17:43.598Z,12148
2016-09-15T10:19:43.665Z,11892
2016-09-15T10:20:58.616Z,11928
2016-09-15T10:21:43.723Z,11968
2016-09-15T10:22:43.757Z,11908
2016-09-15T10:23:43.794Z,11828
2016-09-15T10:24:58.744Z,11728
2016-09-15T10:25:43.846Z,11556
2016-09-15T10:26:58.815Z,11576
2016-09-15T10:27:43.969Z,11496
2016-09-15T10:28:43.961Z,11324
2016-09-15T10:29:43.980Z,11348
2016-09-15T10:30:44.011Z,11408
2016-09-15T10:31:44.051Z,11220
2016-09-15T10:33:44.118Z,11124
2016-09-15T10:34:44.151Z,10960
2016-09-15T10:35:44.175Z,10780
2016-09-15T10:36:44.211Z,10592
2016-09-15T10:37:44.239Z,10248
2016-09-15T10:38:59.198Z,6180
2016-09-15T10:39:44.301Z,4384
2016-09-15T10:40:44.351Z,4564
2016-09-15T10:41:44.371Z,7712
2016-09-15T10:42:59.321Z,4416
2016-09-15T10:43:44.432Z,4368
2016-09-15T10:44:44.463Z,4488
2016-09-15T10:45:44.488Z,7060
2016-09-15T10:47:44.561Z,7904
2016-09-15T10:48:44.580Z,7616
2016-09-15T10:49:44.617Z,7304
2016-09-15T10:50:44.654Z,7156
2016-09-15T10:51:44.689Z,7028
2016-09-15T10:52:44.713Z,6840
2016-09-15T10:53:44.745Z,6684
2016-09-15T10:54:44.766Z,6612
2016-09-15T10:55:44.818Z,6428
2016-09-15T10:56:44.831Z,4096
2016-09-15T10:57:45.166Z,4444
2016-09-15T10:58:59.826Z,5668
2016-09-15T10:59:44.925Z,4204
2016-09-15T11:00:44.961Z,5968
2016-09-15T11:01:44.998Z,5852
2016-09-15T11:02:45.017Z,5652
2016-09-15T11:03:45.055Z,5568
2016-09-15T11:04:45.086Z,5188
2016-09-15T11:05:45.157Z,4024
2016-09-15T11:06:45.152Z,4380
2016-09-15T11:07:45.173Z,4008
2016-09-15T11:08:45.205Z,5404
2016-09-15T11:09:45.233Z,4212
2016-09-15T11:10:45.263Z,3936
2016-09-15T11:11:45.353Z,5248
2016-09-15T11:13:00.250Z,5648
2016-09-15T11:14:00.279Z,5380
2016-09-15T11:15:00.314Z,5460
2016-09-15T11:15:45.417Z,5428
2016-09-15T11:16:45.453Z,5384
2016-09-15T11:17:45.471Z,5316
2016-09-15T11:19:00.749Z,4416
2016-09-15T11:19:45.534Z,4168
2016-09-15T11:20:45.568Z,4872
2016-09-15T11:21:45.608Z,4760
2016-09-15T11:22:45.628Z,5216
2016-09-15T11:24:00.590Z,5184
2016-09-15T11:24:45.691Z,5152
2016-09-15T11:26:00.649Z,5108
2016-09-15T11:26:45.745Z,5136
2016-09-15T11:27:45.851Z,3720
2016-09-15T11:28:45.810Z,5056
2016-09-15T11:29:45.845Z,4964
2016-09-15T11:30:45.873Z,5060
2016-09-15T11:31:45.912Z,5032
2016-09-15T11:32:46.988Z,4992
2016-09-15T11:34:46.293Z,4996
2016-09-15T11:36:00.962Z,5052
2016-09-15T11:36:46.055Z,4992
2016-09-15T11:37:46.082Z,5036
2016-09-15T11:38:46.115Z,4656
2016-09-15T11:39:46.149Z,4936
2016-09-15T11:40:46.178Z,3896
2016-09-15T11:41:46.196Z,4932
2016-09-15T11:44:01.490Z,4956
2016-09-15T11:44:46.302Z,4912
2016-09-15T11:46:01.254Z,5020
2016-09-15T11:46:46.354Z,5000
2016-09-15T11:47:46.390Z,5024
2016-09-15T11:48:46.416Z,5028
2016-09-15T11:49:46.450Z,5012
2016-09-15T11:50:46.479Z,5004
2016-09-15T11:51:46.504Z,5076
2016-09-15T11:52:46.540Z,5104
2016-09-15T11:53:46.580Z,5132
2016-09-15T11:54:46.602Z,5128
2016-09-15T11:55:46.626Z,5088
2016-09-15T11:56:46.648Z,5028
2016-09-15T11:58:01.613Z,4952
2016-09-15T11:58:46.718Z,4996
2016-09-15T11:59:46.740Z,4984
2016-09-15T12:00:46.780Z,4996
2016-09-15T12:02:01.733Z,4996
2016-09-15T12:02:46.837Z,4980
2016-09-15T12:03:46.861Z,4976
2016-09-15T12:04:46.890Z,4964
2016-09-15T12:05:46.933Z,4964
2016-09-15T12:06:46.962Z,4956
2016-09-15T12:08:01.919Z,4940
2016-09-15T12:08:47.023Z,4956
2016-09-15T12:09:47.048Z,4936
2016-09-15T12:10:47.072Z,4948
2016-09-15T12:11:47.161Z,4980
2016-09-15T12:13:02.062Z,4976
2016-09-15T12:13:47.160Z,4972
2016-09-15T12:14:47.500Z,4964
2016-09-15T12:15:47.222Z,4964
2016-09-15T12:16:47.255Z,4960
2016-09-15T12:18:47.356Z,4944
2016-09-15T12:19:47.341Z,4956
2016-09-15T12:20:47.380Z,4960
2016-09-15T12:21:47.409Z,4944
2016-09-15T12:22:47.429Z,4956
2016-09-15T12:24:02.393Z,4944
2016-09-15T12:24:47.506Z,4948
2016-09-15T12:25:47.523Z,4956
2016-09-15T12:26:47.545Z,4932
2016-09-15T12:27:47.582Z,4940
2016-09-15T12:29:47.643Z,4960
2016-09-15T12:31:02.595Z,4932
2016-09-15T12:31:47.706Z,4944
2016-09-15T12:32:47.736Z,4932
2016-09-15T12:34:02.682Z,4908
2016-09-15T12:34:47.857Z,4920
2016-09-15T12:35:47.822Z,4940
2016-09-15T12:36:47.849Z,4936
2016-09-15T12:37:47.927Z,4920
2016-09-15T12:38:47.911Z,4932
2016-09-15T12:39:47.946Z,4900
2016-09-15T12:40:47.966Z,4928
2016-09-15T12:41:47.994Z,4924
2016-09-15T12:43:02.959Z,4964
2016-09-15T12:43:48.059Z,4960
2016-09-15T12:44:48.084Z,4964
2016-09-15T12:45:48.116Z,4980
2016-09-15T12:47:03.073Z,4968
2016-09-15T12:49:03.141Z,4960
2016-09-15T12:49:48.239Z,4964
2016-09-15T12:50:48.265Z,4968
2016-09-15T12:51:48.295Z,4976
2016-09-15T12:53:03.261Z,4984
2016-09-15T12:53:48.360Z,4992
2016-09-15T12:54:48.386Z,5000
2016-09-15T12:55:48.417Z,5008
2016-09-15T12:56:48.447Z,5020
2016-09-15T12:57:48.484Z,5008
2016-09-15T12:58:48.514Z,5028
2016-09-15T12:59:48.541Z,5020
2016-09-15T13:00:48.564Z,5012
2016-09-15T13:02:03.524Z,5024
2016-09-15T13:02:48.630Z,5032
2016-09-15T13:03:48.659Z,5060
2016-09-15T13:04:48.691Z,5064
2016-09-15T13:05:48.720Z,5064
2016-09-15T13:06:48.742Z,5060
2016-09-15T13:07:48.785Z,5068
2016-09-15T13:08:48.805Z,5064
2016-09-15T13:09:48.831Z,5064
2016-09-15T13:10:48.865Z,5056
2016-09-15T13:11:49.193Z,5064
2016-09-15T13:12:48.984Z,5068
2016-09-15T13:13:48.956Z,5052
2016-09-15T13:14:48.989Z,5040
2016-09-15T13:15:49.012Z,5060
2016-09-15T13:16:49.043Z,5056
2016-09-15T13:17:49.070Z,5064
2016-09-15T13:19:04.078Z,5072
2016-09-15T13:19:49.131Z,5072
2016-09-15T13:21:04.091Z,5068
2016-09-15T13:21:49.188Z,5068
2016-09-15T13:22:49.221Z,5084
2016-09-15T13:23:49.253Z,5088
2016-09-15T13:24:49.280Z,5096
2016-09-15T13:25:49.311Z,5100
2016-09-15T13:26:49.341Z,5096
2016-09-15T13:27:49.366Z,5096
2016-09-15T13:28:49.701Z,5096
2016-09-15T13:30:49.458Z,5080
2016-09-15T13:31:49.502Z,5080
2016-09-15T13:32:49.522Z,5092
2016-09-15T13:33:49.552Z,5092
2016-09-15T13:34:49.579Z,5096
2016-09-15T13:35:49.625Z,5092
2016-09-15T13:37:04.568Z,5084
2016-09-15T13:37:49.669Z,5088
2016-09-15T13:39:04.621Z,5088
2016-09-15T13:39:49.737Z,5092
2016-09-15T13:41:49.790Z,5104
2016-09-15T13:42:49.821Z,5096
2016-09-15T13:44:04.780Z,5092
2016-09-15T13:44:49.881Z,5092
2016-09-15T13:45:49.905Z,5092
2016-09-15T13:46:49.943Z,5084
2016-09-15T13:48:05.250Z,5084
2016-09-15T13:48:50.000Z,5088
2016-09-15T13:50:05.005Z,5108
2016-09-15T13:51:50.391Z,5100
2016-09-15T13:53:05.043Z,5096
2016-09-15T13:53:50.143Z,5100
2016-09-15T13:54:50.186Z,5088
2016-09-15T13:55:50.208Z,5084
2016-09-15T13:56:50.242Z,5068
2016-09-15T13:57:50.264Z,5068
2016-09-15T13:58:50.308Z,5068
2016-09-15T13:59:50.325Z,5064
2016-09-15T14:00:50.348Z,5056
2016-09-15T14:01:50.405Z,5056
2016-09-15T14:02:50.419Z,5036
2016-09-15T14:03:50.445Z,5036
2016-09-15T14:04:50.479Z,5044
2016-09-15T14:05:50.513Z,5048
2016-09-15T14:06:50.535Z,5040
2016-09-15T14:07:50.563Z,5036
2016-09-15T14:09:50.628Z,5024
2016-09-15T14:10:50.662Z,5016
2016-09-15T14:12:05.603Z,5012
2016-09-15T14:12:50.719Z,5008
2016-09-15T14:13:50.795Z,5004
2016-09-15T14:14:51.076Z,4996
2016-09-15T14:15:50.807Z,5008
2016-09-15T14:16:50.838Z,5000
2016-09-15T14:17:50.864Z,5004
2016-09-15T14:19:05.823Z,5004
2016-09-15T14:19:50.921Z,5004
2016-09-15T14:20:51.253Z,4996
2016-09-15T14:21:50.988Z,5000
2016-09-15T14:22:51.008Z,4984
2016-09-15T14:24:05.973Z,5000
2016-09-15T14:24:51.073Z,5000
2016-09-15T14:25:51.107Z,5000
2016-09-15T14:26:51.131Z,4996
2016-09-15T14:28:51.196Z,4988
2016-09-15T14:29:51.217Z,4980
2016-09-15T14:30:51.248Z,4980
2016-09-15T14:31:51.275Z,4980
2016-09-15T14:32:51.325Z,4980
2016-09-15T14:33:51.340Z,4972
2016-09-15T14:34:51.372Z,4968
2016-09-15T14:35:51.399Z,4956
2016-09-15T14:37:06.354Z,4952
2016-09-15T14:37:51.461Z,4948
2016-09-15T14:38:51.498Z,4944
2016-09-15T14:39:51.526Z,4940
2016-09-15T14:41:06.466Z,4936
2016-09-15T14:41:51.572Z,4940
2016-09-15T14:42:51.606Z,4936